Terminal Aerodrome Forecast
Issued by NWS

Home | Current Version | Previous Version | Text Only | Print | Product List | Glossary On
Versions: 1 2 3 4 5 6 7 8 9 10 11 12 13 14 15 16
000
FTUS43 KLSX 291700
TAFCPS
TAF
KCPS 291736Z 2918/3018 20015G25KT P6SM VCSH BKN150
     FM292200 23012G20KT P6SM VCSH BKN100
      TEMPO 2922/2924 6SM -SHRA SCT050 BKN100
     FM300000 25008KT P6SM BKN120
     FM300300 29005KT P6SM SKC=

USA.gov is the U.S. government's official web portal to all federal, state and local government web resources and services.